createdAt,value
2023-05-09T00:00:58.810Z,17.80
2023-05-09T00:03:02.197Z,17.80
2023-05-09T00:05:09.874Z,17.80
2023-05-09T00:07:13.823Z,17.80
2023-05-09T00:09:18.948Z,17.70
2023-05-09T00:11:22.922Z,17.70
2023-05-09T00:13:27.432Z,17.70
2023-05-09T00:15:36.780Z,17.70
2023-05-09T00:17:41.478Z,17.70
2023-05-09T00:19:45.400Z,17.70
2023-05-09T00:21:49.649Z,17.70
2023-05-09T00:23:52.502Z,17.60
2023-05-09T00:26:00.592Z,17.60
2023-05-09T00:28:03.500Z,17.60
2023-05-09T00:30:08.908Z,17.60
2023-05-09T00:32:12.422Z,17.60
2023-05-09T00:34:15.637Z,17.50
2023-05-09T00:36:18.475Z,17.50
2023-05-09T00:38:24.130Z,17.50
2023-05-09T00:40:28.441Z,17.50
2023-05-09T00:42:32.571Z,17.40
2023-05-09T00:44:35.513Z,17.40
2023-05-09T00:46:39.565Z,17.40
2023-05-09T00:48:42.588Z,17.30
2023-05-09T00:50:47.546Z,17.30
2023-05-09T00:52:51.451Z,17.30
2023-05-09T00:54:56.988Z,17.30
2023-05-09T00:57:02.223Z,17.30
2023-05-09T00:59:06.337Z,17.20
2023-05-09T01:01:10.912Z,17.20
2023-05-09T01:03:13.988Z,17.20
2023-05-09T01:05:19.949Z,17.20
2023-05-09T01:07:31.029Z,17.20
2023-05-09T01:09:46.819Z,17.20
2023-05-09T01:12:03.858Z,17.20
2023-05-09T01:14:14.025Z,17.20
2023-05-09T01:16:26.689Z,17.10
2023-05-09T01:18:39.304Z,17.10
2023-05-09T01:20:45.863Z,17.10
2023-05-09T01:23:06.432Z,17.10
2023-05-09T01:25:37.529Z,17.00
2023-05-09T01:27:53.472Z,17.00
2023-05-09T01:30:00.415Z,17.00
2023-05-09T01:32:09.159Z,17.00
2023-05-09T01:34:15.203Z,16.90
2023-05-09T01:36:21.350Z,16.90
2023-05-09T01:38:26.786Z,16.90
2023-05-09T01:40:32.879Z,16.90
2023-05-09T01:42:46.012Z,16.80
2023-05-09T01:44:50.237Z,16.90
2023-05-09T01:46:56.412Z,16.80
2023-05-09T01:49:00.574Z,16.80
2023-05-09T01:51:06.120Z,16.80
2023-05-09T01:53:11.507Z,16.80
2023-05-09T01:55:15.882Z,16.80
2023-05-09T01:57:23.460Z,16.70
2023-05-09T01:59:31.536Z,16.70
2023-05-09T02:01:36.312Z,16.70
2023-05-09T02:03:41.321Z,16.60
2023-05-09T02:05:46.021Z,16.60
2023-05-09T02:07:49.745Z,16.60
2023-05-09T02:09:57.588Z,16.60
2023-05-09T02:12:04.413Z,16.50
2023-05-09T02:14:07.310Z,16.60
2023-05-09T02:16:12.079Z,16.50
2023-05-09T02:18:16.866Z,16.50
2023-05-09T02:20:21.675Z,16.50
2023-05-09T02:22:25.341Z,16.50
2023-05-09T02:24:28.619Z,16.50
2023-05-09T02:26:32.523Z,16.50
2023-05-09T02:28:36.811Z,16.40
2023-05-09T02:30:43.809Z,16.40
2023-05-09T02:32:49.804Z,16.40
2023-05-09T02:34:56.956Z,16.40
2023-05-09T02:37:01.444Z,16.40
2023-05-09T02:39:04.580Z,16.40
2023-05-09T02:41:07.660Z,16.30
2023-05-09T02:43:10.805Z,16.30
2023-05-09T02:45:13.873Z,16.20
2023-05-09T02:47:17.014Z,16.20
2023-05-09T02:49:31.461Z,16.20
2023-05-09T02:51:36.361Z,16.20
2023-05-09T02:53:43.205Z,16.20
2023-05-09T02:55:50.184Z,16.20
2023-05-09T02:58:05.310Z,16.20
2023-05-09T03:00:17.983Z,16.20
2023-05-09T03:02:23.657Z,16.20
2023-05-09T03:04:30.476Z,16.10
2023-05-09T03:06:34.682Z,16.10
2023-05-09T03:08:37.680Z,16.10
2023-05-09T03:10:43.732Z,16.10
2023-05-09T03:12:47.548Z,16.10
2023-05-09T03:14:50.491Z,16.10
2023-05-09T03:16:53.524Z,16.00
2023-05-09T03:19:08.564Z,16.00
2023-05-09T03:21:11.599Z,16.10
2023-05-09T03:23:15.858Z,16.10
2023-05-09T03:25:18.895Z,16.00
2023-05-09T03:27:26.123Z,16.00
2023-05-09T03:29:29.439Z,16.00
2023-05-09T03:31:36.872Z,16.00
2023-05-09T03:33:44.059Z,16.00
2023-05-09T03:35:48.604Z,16.00
2023-05-09T03:37:55.090Z,15.90
2023-05-09T03:39:58.159Z,16.00
2023-05-09T03:42:02.076Z,15.90
2023-05-09T03:44:06.709Z,15.90
2023-05-09T03:46:10.107Z,15.90
2023-05-09T03:48:14.830Z,15.90
2023-05-09T03:50:22.854Z,15.90
2023-05-09T03:52:27.007Z,15.90
2023-05-09T03:54:33.998Z,15.80
2023-05-09T03:56:37.337Z,15.80
2023-05-09T03:58:40.489Z,15.80
2023-05-09T04:00:46.133Z,15.80
2023-05-09T04:02:56.060Z,15.80
2023-05-09T04:05:08.689Z,15.80
2023-05-09T04:07:15.113Z,15.80
2023-05-09T04:09:18.285Z,15.80
2023-05-09T04:11:25.066Z,15.70
2023-05-09T04:13:29.831Z,15.80
2023-05-09T04:15:34.268Z,15.80
2023-05-09T04:17:41.463Z,15.80
2023-05-09T04:19:45.996Z,15.80
2023-05-09T04:21:49.791Z,15.70
2023-05-09T04:23:52.652Z,15.70
2023-05-09T04:26:02.678Z,15.70
2023-05-09T04:28:11.986Z,15.70
2023-05-09T04:30:17.836Z,15.80
2023-05-09T04:32:23.154Z,15.80
2023-05-09T04:34:27.798Z,15.70
2023-05-09T04:36:33.881Z,15.80
2023-05-09T04:38:36.951Z,15.80
2023-05-09T04:40:43.948Z,15.80
2023-05-09T04:42:46.975Z,15.80
2023-05-09T04:44:50.391Z,15.80
2023-05-09T04:46:55.035Z,15.80
2023-05-09T04:48:57.921Z,15.80
2023-05-09T04:51:04.304Z,15.80
2023-05-09T04:53:08.370Z,15.80
2023-05-09T04:55:14.073Z,15.90
2023-05-09T04:57:21.251Z,15.90
2023-05-09T04:59:29.848Z,15.90
2023-05-09T05:01:33.242Z,15.90
2023-05-09T05:03:36.853Z,15.90
2023-05-09T05:05:41.559Z,15.90
2023-05-09T05:07:46.306Z,16.00
2023-05-09T05:09:56.459Z,16.00
2023-05-09T05:12:02.374Z,16.00
2023-05-09T05:14:07.922Z,16.10
2023-05-09T05:16:10.955Z,16.10
2023-05-09T05:18:14.286Z,16.10
2023-05-09T05:20:21.759Z,16.10
2023-05-09T05:22:29.013Z,16.10
2023-05-09T05:24:36.535Z,16.20
2023-05-09T05:26:39.413Z,16.20
2023-05-09T05:28:42.367Z,16.20
2023-05-09T05:30:47.999Z,16.10
2023-05-09T05:32:51.135Z,16.30
2023-05-09T05:34:57.262Z,16.30
2023-05-09T05:37:00.492Z,16.30
2023-05-09T05:39:03.502Z,16.40
2023-05-09T05:41:11.151Z,16.40
2023-05-09T05:43:15.063Z,16.40
2023-05-09T05:45:20.548Z,16.40
2023-05-09T05:47:31.212Z,16.50
2023-05-09T05:49:35.886Z,16.50
2023-05-09T05:51:39.331Z,16.50
2023-05-09T05:53:45.179Z,16.50
2023-05-09T05:55:50.273Z,16.50
2023-05-09T05:57:58.285Z,16.60
2023-05-09T06:00:01.926Z,16.60
2023-05-09T06:02:05.025Z,16.60
2023-05-09T06:04:10.593Z,16.60
2023-05-09T06:06:13.837Z,16.60
2023-05-09T06:08:21.861Z,16.70
2023-05-09T06:10:26.681Z,16.70
2023-05-09T06:12:30.977Z,16.70
2023-05-09T06:14:37.711Z,16.80
2023-05-09T06:16:41.153Z,16.80
2023-05-09T06:18:44.802Z,16.80
2023-05-09T06:20:47.749Z,16.90
2023-05-09T06:22:56.750Z,16.90
2023-05-09T06:25:02.088Z,16.90
2023-05-09T06:27:05.797Z,16.90
2023-05-09T06:29:08.783Z,17.00
2023-05-09T06:31:13.100Z,17.00
2023-05-09T06:33:15.994Z,17.00
2023-05-09T06:35:19.284Z,17.00
2023-05-09T06:37:22.408Z,17.10
2023-05-09T06:39:25.320Z,17.10
2023-05-09T06:41:30.437Z,17.10
2023-05-09T06:43:33.341Z,17.10
2023-05-09T06:45:38.737Z,17.10
2023-05-09T06:47:45.423Z,17.20
2023-05-09T06:49:48.350Z,17.10
2023-05-09T06:51:51.265Z,17.20
2023-05-09T06:53:54.154Z,17.20
2023-05-09T06:55:57.166Z,17.20
2023-05-09T06:58:00.266Z,17.30
2023-05-09T07:00:04.791Z,17.30
2023-05-09T07:02:08.698Z,17.30
2023-05-09T07:04:12.984Z,17.30
2023-05-09T07:06:15.999Z,17.40
2023-05-09T07:08:20.763Z,17.40
2023-05-09T07:10:23.741Z,17.40
2023-05-09T07:12:26.700Z,17.40
2023-05-09T07:14:29.662Z,17.40
2023-05-09T07:16:34.105Z,17.50
2023-05-09T07:18:38.819Z,17.50
2023-05-09T07:20:43.116Z,17.50
2023-05-09T07:22:46.316Z,17.60
2023-05-09T07:24:49.200Z,17.60
2023-05-09T07:26:54.209Z,17.60
2023-05-09T07:29:01.636Z,17.70
2023-05-09T07:31:05.994Z,17.70
2023-05-09T07:33:08.982Z,17.70
2023-05-09T07:35:14.894Z,17.80
2023-05-09T07:37:26.766Z,17.80
2023-05-09T07:39:33.473Z,17.90
2023-05-09T07:41:38.516Z,18.00
2023-05-09T07:43:41.554Z,18.10
2023-05-09T07:45:44.994Z,18.10
2023-05-09T07:47:47.999Z,18.20
2023-05-09T07:49:52.788Z,18.20
2023-05-09T07:51:55.642Z,18.30
2023-05-09T07:53:59.934Z,18.30
2023-05-09T07:56:02.860Z,18.40
2023-05-09T07:58:05.949Z,18.40
2023-05-09T08:00:10.746Z,18.40
2023-05-09T08:02:20.622Z,18.50
2023-05-09T08:04:26.347Z,18.50
2023-05-09T08:06:29.285Z,18.50
2023-05-09T08:08:32.407Z,18.50
2023-05-09T08:10:36.835Z,18.50
2023-05-09T08:12:40.092Z,18.60
2023-05-09T08:14:45.544Z,18.60
2023-05-09T08:16:48.515Z,18.60
2023-05-09T08:18:52.691Z,18.80
2023-05-09T08:20:58.331Z,18.70
2023-05-09T08:23:01.302Z,18.70
2023-05-09T08:25:04.173Z,18.80
2023-05-09T08:27:13.248Z,18.80
2023-05-09T08:29:17.585Z,19.00
2023-05-09T08:31:21.233Z,19.00
2023-05-09T08:33:24.169Z,19.10
2023-05-09T08:35:27.038Z,19.10
2023-05-09T08:37:29.944Z,19.20
2023-05-09T08:39:34.911Z,19.20
2023-05-09T08:41:39.726Z,19.30
2023-05-09T08:43:48.683Z,19.30
2023-05-09T08:45:55.295Z,19.30
2023-05-09T08:48:02.134Z,19.30
2023-05-09T08:50:06.034Z,19.40
2023-05-09T08:52:11.335Z,19.40
2023-05-09T08:54:14.823Z,19.40
2023-05-09T08:56:18.182Z,19.40
2023-05-09T08:58:22.470Z,19.50
2023-05-09T09:00:28.502Z,19.40
2023-05-09T09:02:33.502Z,19.50
2023-05-09T09:04:44.585Z,19.50
2023-05-09T09:06:48.067Z,19.50
2023-05-09T09:08:51.790Z,19.50
2023-05-09T09:10:55.305Z,19.60
2023-05-09T09:13:00.324Z,19.60
2023-05-09T09:15:06.709Z,19.70
2023-05-09T09:17:12.985Z,19.70
2023-05-09T09:19:23.298Z,19.80
2023-05-09T09:21:26.430Z,19.80
2023-05-09T09:23:31.353Z,19.80
2023-05-09T09:25:34.522Z,19.90
2023-05-09T09:27:37.401Z,19.90
2023-05-09T09:29:40.369Z,19.80
2023-05-09T09:31:47.072Z,19.80
2023-05-09T09:33:53.491Z,19.90
2023-05-09T09:36:00.422Z,19.90
2023-05-09T09:38:03.467Z,19.90
2023-05-09T09:40:12.533Z,19.90
2023-05-09T09:42:16.122Z,19.90
2023-05-09T09:44:26.947Z,20.00
2023-05-09T09:46:41.478Z,20.00
2023-05-09T09:48:51.054Z,20.00
2023-05-09T09:50:59.268Z,20.10
2023-05-09T09:53:02.548Z,20.10
2023-05-09T09:55:16.637Z,20.10
2023-05-09T09:57:37.184Z,20.20
2023-05-09T09:59:42.546Z,20.30
2023-05-09T10:01:59.613Z,20.30
2023-05-09T10:04:04.736Z,20.30
2023-05-09T10:06:18.476Z,20.30
2023-05-09T10:08:23.091Z,20.40
2023-05-09T10:10:34.387Z,20.50
2023-05-09T10:12:38.302Z,20.50
2023-05-09T10:14:44.707Z,20.60
2023-05-09T10:16:49.480Z,20.60
2023-05-09T10:18:53.483Z,20.70
2023-05-09T10:21:01.045Z,20.80
2023-05-09T10:23:07.077Z,20.90
2023-05-09T10:25:16.262Z,21.00
2023-05-09T10:27:24.799Z,21.00
2023-05-09T10:29:31.855Z,21.10
2023-05-09T10:31:40.192Z,21.10
2023-05-09T10:33:48.897Z,21.10
2023-05-09T10:35:53.245Z,21.20
2023-05-09T10:37:58.428Z,21.20
2023-05-09T10:40:08.345Z,21.20
2023-05-09T10:42:12.308Z,21.30
2023-05-09T10:44:17.273Z,21.30
2023-05-09T10:46:20.664Z,21.40
2023-05-09T10:48:26.397Z,21.40
2023-05-09T10:50:32.678Z,21.40
2023-05-09T10:52:35.614Z,21.50
2023-05-09T10:54:41.289Z,21.50
2023-05-09T10:56:45.946Z,21.40
2023-05-09T10:58:49.176Z,21.40
2023-05-09T11:00:54.229Z,21.40
2023-05-09T11:03:11.043Z,21.40
2023-05-09T11:05:18.763Z,21.40
2023-05-09T11:07:26.205Z,21.40
2023-05-09T11:09:32.953Z,21.40
2023-05-09T11:11:51.749Z,21.40
2023-05-09T11:13:59.140Z,21.40
2023-05-09T11:16:16.732Z,21.50
2023-05-09T11:18:19.937Z,21.50
2023-05-09T11:20:29.383Z,21.50
2023-05-09T11:22:45.216Z,21.50
2023-05-09T11:24:49.586Z,21.50
2023-05-09T11:26:52.726Z,21.50
2023-05-09T11:29:00.284Z,21.50
2023-05-09T11:31:13.738Z,21.50
2023-05-09T11:33:24.829Z,21.60
2023-05-09T11:35:31.268Z,21.60
2023-05-09T11:37:36.492Z,21.60
2023-05-09T11:39:58.135Z,21.60
2023-05-09T11:42:03.898Z,21.50
2023-05-09T11:44:15.669Z,21.50
2023-05-09T11:46:18.985Z,21.40
2023-05-09T11:48:26.075Z,21.30
2023-05-09T11:50:29.307Z,21.20
2023-05-09T11:52:34.964Z,21.10
2023-05-09T11:54:39.824Z,21.00
2023-05-09T11:56:42.935Z,20.90
2023-05-09T11:58:46.740Z,20.90
2023-05-09T12:00:51.009Z,20.80
2023-05-09T12:02:54.633Z,20.80
2023-05-09T12:04:57.755Z,20.70
2023-05-09T12:07:03.482Z,20.60
2023-05-09T12:09:06.556Z,20.60
2023-05-09T12:11:10.326Z,20.60
2023-05-09T12:13:17.455Z,20.60
2023-05-09T12:15:21.519Z,20.50
2023-05-09T12:17:26.584Z,20.50
2023-05-09T12:19:31.122Z,20.50
2023-05-09T12:21:34.037Z,20.40
2023-05-09T12:23:37.046Z,20.40
2023-05-09T12:25:49.309Z,20.30
2023-05-09T12:27:56.782Z,20.40
2023-05-09T12:30:02.159Z,20.30
2023-05-09T12:32:05.918Z,20.30
2023-05-09T12:34:12.462Z,20.20
2023-05-09T12:36:17.514Z,20.20
2023-05-09T12:38:22.648Z,20.10
2023-05-09T12:40:26.082Z,20.10
2023-05-09T12:42:29.483Z,20.10
2023-05-09T12:44:32.601Z,20.10
2023-05-09T12:46:37.561Z,20.10
2023-05-09T12:48:44.202Z,20.10
2023-05-09T12:50:50.660Z,20.10
2023-05-09T12:53:02.607Z,20.10
2023-05-09T12:55:07.998Z,20.10
2023-05-09T12:57:24.774Z,20.10
2023-05-09T12:59:30.191Z,20.10
2023-05-09T13:01:37.173Z,20.10
2023-05-09T13:03:40.117Z,20.10
2023-05-09T13:05:44.898Z,20.10
2023-05-09T13:07:53.367Z,20.10
2023-05-09T13:10:00.968Z,20.10
2023-05-09T13:12:09.776Z,20.10
2023-05-09T13:14:13.033Z,20.00
2023-05-09T13:16:17.550Z,20.00
2023-05-09T13:18:22.588Z,20.00
2023-05-09T13:20:25.873Z,20.00
2023-05-09T13:22:32.330Z,19.90
2023-05-09T13:24:38.067Z,19.90
2023-05-09T13:26:43.277Z,19.90
2023-05-09T13:28:46.240Z,19.90
2023-05-09T13:30:53.696Z,19.80
2023-05-09T13:32:56.630Z,19.80
2023-05-09T13:34:59.516Z,19.80
2023-05-09T13:37:05.358Z,19.70
2023-05-09T13:39:09.079Z,19.70
2023-05-09T13:41:19.744Z,19.70
2023-05-09T13:43:22.564Z,19.70
2023-05-09T13:45:27.805Z,19.70
2023-05-09T13:47:30.971Z,19.60
2023-05-09T13:49:33.935Z,19.60
2023-05-09T13:51:36.875Z,19.60
2023-05-09T13:53:40.027Z,19.60
2023-05-09T13:55:43.468Z,19.60
2023-05-09T13:57:48.124Z,19.60
2023-05-09T13:59:53.812Z,19.60
2023-05-09T14:01:59.912Z,19.60
2023-05-09T14:04:03.451Z,19.60
2023-05-09T14:06:06.662Z,19.60
2023-05-09T14:08:12.379Z,19.70
2023-05-09T14:10:15.752Z,19.70
2023-05-09T14:12:21.860Z,19.60
2023-05-09T14:14:26.884Z,19.60
2023-05-09T14:16:29.842Z,19.60
2023-05-09T14:18:32.990Z,19.60
2023-05-09T14:20:40.548Z,19.60
2023-05-09T14:22:43.477Z,19.50
2023-05-09T14:24:46.453Z,19.50
2023-05-09T14:26:49.334Z,19.40
2023-05-09T14:28:52.287Z,19.40
2023-05-09T14:30:59.477Z,19.40
2023-05-09T14:33:04.805Z,19.30
2023-05-09T14:35:09.892Z,19.30
2023-05-09T14:37:14.504Z,19.20
2023-05-09T14:39:20.989Z,19.20
2023-05-09T14:41:25.113Z,19.20
2023-05-09T14:43:29.547Z,19.10
2023-05-09T14:45:34.858Z,19.10
2023-05-09T14:47:41.643Z,19.10
2023-05-09T14:49:46.795Z,19.00
2023-05-09T14:51:49.624Z,19.00
2023-05-09T14:53:55.276Z,18.90
2023-05-09T14:55:58.344Z,19.00
2023-05-09T14:58:01.227Z,18.90
2023-05-09T15:00:19.399Z,18.90
2023-05-09T15:02:27.163Z,18.90
2023-05-09T15:04:32.682Z,18.80
2023-05-09T15:06:37.989Z,18.80
2023-05-09T15:08:41.908Z,18.80
2023-05-09T15:10:46.079Z,18.70
2023-05-09T15:12:50.775Z,18.70
2023-05-09T15:14:55.673Z,18.70
2023-05-09T15:17:01.221Z,18.70
2023-05-09T15:19:05.733Z,18.70
2023-05-09T15:21:10.163Z,18.70
2023-05-09T15:23:15.165Z,18.60
2023-05-09T15:25:19.594Z,18.60
2023-05-09T15:27:22.494Z,18.60
2023-05-09T15:29:25.383Z,18.60
2023-05-09T15:31:32.696Z,18.60
2023-05-09T15:33:35.745Z,18.60
2023-05-09T15:35:38.673Z,18.60
2023-05-09T15:37:44.436Z,18.60
2023-05-09T15:39:47.463Z,18.50
2023-05-09T15:41:50.434Z,18.50
2023-05-09T15:43:58.370Z,18.50
2023-05-09T15:46:06.199Z,18.50
2023-05-09T15:48:09.267Z,18.50
2023-05-09T15:50:13.211Z,18.50
2023-05-09T15:52:16.349Z,18.40
2023-05-09T15:54:20.773Z,18.40
2023-05-09T15:56:25.618Z,18.40
2023-05-09T15:58:28.723Z,18.30
2023-05-09T16:00:31.775Z,18.40
2023-05-09T16:02:34.798Z,18.30
2023-05-09T16:04:38.427Z,18.30
2023-05-09T16:06:42.561Z,18.30
2023-05-09T16:08:47.613Z,18.30
2023-05-09T16:10:52.201Z,18.20
2023-05-09T16:12:57.189Z,18.20
2023-05-09T16:15:00.078Z,18.10
2023-05-09T16:17:04.028Z,18.10
2023-05-09T16:19:07.320Z,18.00
2023-05-09T16:21:10.669Z,18.00
2023-05-09T16:23:13.812Z,18.00
2023-05-09T16:25:18.152Z,17.90
2023-05-09T16:27:25.031Z,17.90
2023-05-09T16:29:28.574Z,17.80
2023-05-09T16:31:33.922Z,17.70
2023-05-09T16:33:38.324Z,17.70
2023-05-09T16:35:42.789Z,17.70
2023-05-09T16:37:47.941Z,17.60
2023-05-09T16:39:50.817Z,17.60
2023-05-09T16:41:54.133Z,17.50
2023-05-09T16:43:58.764Z,17.50
2023-05-09T16:46:01.769Z,17.50
2023-05-09T16:48:06.027Z,17.40
2023-05-09T16:50:10.420Z,17.40
2023-05-09T16:52:13.562Z,17.30
2023-05-09T16:54:18.592Z,17.30
2023-05-09T16:56:25.897Z,17.20
2023-05-09T16:58:29.004Z,17.20
2023-05-09T17:00:34.718Z,17.10
2023-05-09T17:02:39.675Z,17.10
2023-05-09T17:04:42.657Z,17.00
2023-05-09T17:06:45.960Z,16.90
2023-05-09T17:08:50.852Z,16.90
2023-05-09T17:10:55.882Z,16.80
2023-05-09T17:12:59.049Z,16.80
2023-05-09T17:15:02.253Z,16.70
2023-05-09T17:17:06.482Z,16.70
2023-05-09T17:19:09.351Z,16.70
2023-05-09T17:21:12.524Z,16.60
2023-05-09T17:23:17.544Z,16.60
2023-05-09T17:25:22.020Z,16.60
2023-05-09T17:27:26.930Z,16.60
2023-05-09T17:29:33.433Z,16.60
2023-05-09T17:31:36.371Z,16.60
2023-05-09T17:33:41.659Z,16.50
2023-05-09T17:35:49.637Z,16.50
2023-05-09T17:37:52.661Z,16.50
2023-05-09T17:39:55.517Z,16.50
2023-05-09T17:41:58.671Z,16.50
2023-05-09T17:44:01.526Z,16.50
2023-05-09T17:46:08.139Z,16.50
2023-05-09T17:48:11.045Z,16.50
2023-05-09T17:50:18.991Z,16.50
2023-05-09T17:52:22.441Z,16.50
2023-05-09T17:54:25.466Z,16.50
2023-05-09T17:56:28.404Z,16.50
2023-05-09T17:58:32.865Z,16.50
2023-05-09T18:00:36.528Z,16.50
2023-05-09T18:02:42.392Z,16.40
2023-05-09T18:04:46.297Z,16.40
2023-05-09T18:06:52.244Z,16.40
2023-05-09T18:08:56.209Z,16.40
2023-05-09T18:10:59.115Z,16.40
2023-05-09T18:13:03.250Z,16.40
2023-05-09T18:15:12.737Z,16.40
2023-05-09T18:17:15.652Z,16.40
2023-05-09T18:19:18.645Z,16.30
2023-05-09T18:21:21.542Z,16.30
2023-05-09T18:23:26.622Z,16.30
2023-05-09T18:25:29.651Z,16.30
2023-05-09T18:27:32.588Z,16.30
2023-05-09T18:29:35.638Z,16.20
2023-05-09T18:31:41.738Z,16.20
2023-05-09T18:33:46.518Z,16.20
2023-05-09T18:35:49.308Z,16.10
2023-05-09T18:37:52.526Z,16.10
2023-05-09T18:39:57.112Z,16.10
2023-05-09T18:42:01.921Z,16.10
2023-05-09T18:44:05.117Z,16.10
2023-05-09T18:46:08.518Z,16.10
2023-05-09T18:48:13.610Z,16.10
2023-05-09T18:50:18.818Z,16.10
2023-05-09T18:52:22.699Z,16.10
2023-05-09T18:54:29.842Z,16.10
2023-05-09T18:56:39.595Z,16.00
2023-05-09T18:58:42.629Z,16.10
2023-05-09T19:00:50.039Z,16.10
2023-05-09T19:02:53.204Z,16.10
2023-05-09T19:04:56.158Z,16.10
2023-05-09T19:06:59.945Z,16.00
2023-05-09T19:09:04.270Z,16.00
2023-05-09T19:11:07.404Z,16.00
2023-05-09T19:13:13.369Z,16.00
2023-05-09T19:15:17.919Z,15.90
2023-05-09T19:17:21.017Z,16.00
2023-05-09T19:19:25.242Z,15.90
2023-05-09T19:21:28.326Z,15.90
2023-05-09T19:23:31.557Z,15.90
2023-05-09T19:25:36.834Z,15.90
2023-05-09T19:27:39.806Z,15.80
2023-05-09T19:29:44.140Z,15.80
2023-05-09T19:31:48.465Z,15.80
2023-05-09T19:33:51.400Z,15.80
2023-05-09T19:35:55.772Z,15.80
2023-05-09T19:37:59.586Z,15.80
2023-05-09T19:40:05.263Z,15.80
2023-05-09T19:42:10.996Z,15.80
2023-05-09T19:44:16.557Z,15.70
2023-05-09T19:46:22.227Z,15.70
2023-05-09T19:48:26.324Z,15.70
2023-05-09T19:50:35.183Z,15.70
2023-05-09T19:52:41.130Z,15.70
2023-05-09T19:54:46.011Z,15.70
2023-05-09T19:56:48.862Z,15.70
2023-05-09T19:58:55.060Z,15.60
2023-05-09T20:00:58.698Z,15.60
2023-05-09T20:03:11.724Z,15.60
2023-05-09T20:05:17.690Z,15.60
2023-05-09T20:07:22.918Z,15.60
2023-05-09T20:09:25.822Z,15.60
2023-05-09T20:11:30.638Z,15.50
2023-05-09T20:13:35.725Z,15.50
2023-05-09T20:15:39.542Z,15.50
2023-05-09T20:17:43.743Z,15.50
2023-05-09T20:19:47.973Z,15.50
2023-05-09T20:21:50.899Z,15.50
2023-05-09T20:24:02.450Z,15.40
2023-05-09T20:26:05.393Z,15.40
2023-05-09T20:28:08.996Z,15.40
2023-05-09T20:30:13.018Z,15.40
2023-05-09T20:32:17.935Z,15.40
2023-05-09T20:34:22.790Z,15.40
2023-05-09T20:36:30.640Z,15.40
2023-05-09T20:38:35.422Z,15.40
2023-05-09T20:40:38.598Z,15.40
2023-05-09T20:42:41.512Z,15.40
2023-05-09T20:44:44.709Z,15.40
2023-05-09T20:46:54.854Z,15.40
2023-05-09T20:49:00.611Z,15.40
2023-05-09T20:51:06.582Z,15.40
2023-05-09T20:53:13.451Z,15.40
2023-05-09T20:55:16.628Z,15.40
2023-05-09T20:57:19.630Z,15.30
2023-05-09T20:59:24.394Z,15.40
2023-05-09T21:01:28.110Z,15.40
2023-05-09T21:03:31.293Z,15.40
2023-05-09T21:05:34.200Z,15.40
2023-05-09T21:07:40.901Z,15.40
2023-05-09T21:09:48.247Z,15.30
2023-05-09T21:11:52.814Z,15.30
2023-05-09T21:13:58.620Z,15.30
2023-05-09T21:16:01.520Z,15.30
2023-05-09T21:18:08.586Z,15.30
2023-05-09T21:20:12.313Z,15.30
2023-05-09T21:22:19.248Z,15.30
2023-05-09T21:24:22.115Z,15.30
2023-05-09T21:26:31.711Z,15.30
2023-05-09T21:28:34.760Z,15.30
2023-05-09T21:30:39.429Z,15.30
2023-05-09T21:32:44.254Z,15.30
2023-05-09T21:34:50.037Z,15.30
2023-05-09T21:36:52.941Z,15.30
2023-05-09T21:38:55.889Z,15.30
2023-05-09T21:40:59.048Z,15.30
2023-05-09T21:43:05.886Z,15.30
2023-05-09T21:45:09.375Z,15.30
2023-05-09T21:47:17.138Z,15.20
2023-05-09T21:49:21.803Z,15.30
2023-05-09T21:51:24.669Z,15.20
2023-05-09T21:53:27.596Z,15.30
2023-05-09T21:55:30.681Z,15.30
2023-05-09T21:57:33.637Z,15.30
2023-05-09T21:59:38.306Z,15.30
2023-05-09T22:01:42.143Z,15.30
2023-05-09T22:03:47.376Z,15.30
2023-05-09T22:05:54.441Z,15.30
2023-05-09T22:07:57.407Z,15.30
2023-05-09T22:10:06.021Z,15.30
2023-05-09T22:12:11.334Z,15.30
2023-05-09T22:14:14.222Z,15.30
2023-05-09T22:16:18.549Z,15.30
2023-05-09T22:18:21.610Z,15.30
2023-05-09T22:20:24.894Z,15.30
2023-05-09T22:22:29.688Z,15.30
2023-05-09T22:24:32.526Z,15.30
2023-05-09T22:26:35.496Z,15.30
2023-05-09T22:28:38.553Z,15.30
2023-05-09T22:30:41.446Z,15.30
2023-05-09T22:32:48.295Z,15.30
2023-05-09T22:34:51.198Z,15.30
2023-05-09T22:36:59.797Z,15.30
2023-05-09T22:39:03.037Z,15.30
2023-05-09T22:41:07.393Z,15.20
2023-05-09T22:43:12.988Z,15.30
2023-05-09T22:45:15.872Z,15.20
2023-05-09T22:47:18.829Z,15.30
2023-05-09T22:49:26.072Z,15.20
2023-05-09T22:51:29.199Z,15.20
2023-05-09T22:53:32.619Z,15.20
2023-05-09T22:55:38.646Z,15.20
2023-05-09T22:57:41.723Z,15.20
2023-05-09T22:59:45.067Z,15.20
2023-05-09T23:01:48.020Z,15.20
2023-05-09T23:03:52.855Z,15.20
2023-05-09T23:05:57.117Z,15.20
2023-05-09T23:08:03.277Z,15.20
2023-05-09T23:10:06.859Z,15.20
2023-05-09T23:12:16.198Z,15.20
2023-05-09T23:14:19.093Z,15.20
2023-05-09T23:16:23.942Z,15.20
2023-05-09T23:18:30.264Z,15.20
2023-05-09T23:20:33.161Z,15.20
2023-05-09T23:22:37.409Z,15.20
2023-05-09T23:24:42.184Z,15.20
2023-05-09T23:26:50.208Z,15.20
2023-05-09T23:28:55.103Z,15.20
2023-05-09T23:30:58.187Z,15.20
2023-05-09T23:33:01.156Z,15.30
2023-05-09T23:35:07.921Z,15.20
2023-05-09T23:37:11.787Z,15.20
2023-05-09T23:39:17.010Z,15.20
2023-05-09T23:41:20.065Z,15.30
2023-05-09T23:43:22.941Z,15.30
2023-05-09T23:45:28.834Z,15.30
2023-05-09T23:47:32.043Z,15.30
2023-05-09T23:49:34.965Z,15.30
2023-05-09T23:51:40.549Z,15.30
2023-05-09T23:53:45.916Z,15.30
2023-05-09T23:55:50.087Z,15.30
2023-05-09T23:57:53.080Z,15.30
